sensor_id;sensor_type;location;lat;lon;timestamp;temperature;humidity
32502;DHT22;18952;52.516;13.460;2023-06-14T00:04:27;15.90;77.30
32502;DHT22;18952;52.516;13.460;2023-06-14T00:06:55;15.90;77.40
32502;DHT22;18952;52.516;13.460;2023-06-14T00:09:22;15.80;78.00
32502;DHT22;18952;52.516;13.460;2023-06-14T00:11:49;15.80;78.50
32502;DHT22;18952;52.516;13.460;2023-06-14T00:14:15;15.80;78.90
32502;DHT22;18952;52.516;13.460;2023-06-14T00:16:42;15.80;79.40
32502;DHT22;18952;52.516;13.460;2023-06-14T00:19:09;15.70;79.90
32502;DHT22;18952;52.516;13.460;2023-06-14T00:21:37;15.70;80.60
32502;DHT22;18952;52.516;13.460;2023-06-14T00:24:04;15.70;80.50
32502;DHT22;18952;52.516;13.460;2023-06-14T00:26:31;15.70;81.00
32502;DHT22;18952;52.516;13.460;2023-06-14T00:28:58;15.70;81.70
32502;DHT22;18952;52.516;13.460;2023-06-14T00:31:25;15.60;82.20
32502;DHT22;18952;52.516;13.460;2023-06-14T00:33:52;15.60;82.90
32502;DHT22;18952;52.516;13.460;2023-06-14T00:36:18;15.60;84.00
32502;DHT22;18952;52.516;13.460;2023-06-14T00:38:45;15.50;84.90
32502;DHT22;18952;52.516;13.460;2023-06-14T00:41:12;15.60;85.40
32502;DHT22;18952;52.516;13.460;2023-06-14T00:43:39;15.50;86.40
32502;DHT22;18952;52.516;13.460;2023-06-14T00:46:05;15.50;87.50
32502;DHT22;18952;52.516;13.460;2023-06-14T00:48:33;15.50;88.50
32502;DHT22;18952;52.516;13.460;2023-06-14T00:51:00;15.50;89.90
32502;DHT22;18952;52.516;13.460;2023-06-14T00:53:27;15.50;90.40
32502;DHT22;18952;52.516;13.460;2023-06-14T00:55:54;15.40;91.10
32502;DHT22;18952;52.516;13.460;2023-06-14T00:58:22;15.40;91.80
32502;DHT22;18952;52.516;13.460;2023-06-14T01:00:49;15.40;92.50
32502;DHT22;18952;52.516;13.460;2023-06-14T01:03:15;15.40;93.10
32502;DHT22;18952;52.516;13.460;2023-06-14T01:05:42;15.50;93.80
32502;DHT22;18952;52.516;13.460;2023-06-14T01:08:28;15.40;94.70
32502;DHT22;18952;52.516;13.460;2023-06-14T01:11:08;15.40;95.90
32502;DHT22;18952;52.516;13.460;2023-06-14T01:13:39;15.30;96.50
32502;DHT22;18952;52.516;13.460;2023-06-14T01:16:08;15.30;97.60
32502;DHT22;18952;52.516;13.460;2023-06-14T01:18:35;15.30;98.50
32502;DHT22;18952;52.516;13.460;2023-06-14T01:21:02;15.30;99.00
32502;DHT22;18952;52.516;13.460;2023-06-14T01:23:29;15.30;99.80
32502;DHT22;18952;52.516;13.460;2023-06-14T01:25:56;15.30;99.90
32502;DHT22;18952;52.516;13.460;2023-06-14T01:28:23;15.20;99.90
32502;DHT22;18952;52.516;13.460;2023-06-14T01:30:53;15.20;99.90
32502;DHT22;18952;52.516;13.460;2023-06-14T01:33:22;15.20;99.90
32502;DHT22;18952;52.516;13.460;2023-06-14T01:35:53;15.30;99.90
32502;DHT22;18952;52.516;13.460;2023-06-14T01:38:23;15.30;99.90
32502;DHT22;18952;52.516;13.460;2023-06-14T01:40:52;15.20;99.90
32502;DHT22;18952;52.516;13.460;2023-06-14T01:43:21;15.20;99.90
32502;DHT22;18952;52.516;13.460;2023-06-14T01:45:50;15.20;99.90
32502;DHT22;18952;52.516;13.460;2023-06-14T01:48:18;15.10;99.90
32502;DHT22;18952;52.516;13.460;2023-06-14T01:50:46;15.10;99.90
32502;DHT22;18952;52.516;13.460;2023-06-14T01:53:14;15.10;99.90
32502;DHT22;18952;52.516;13.460;2023-06-14T01:55:40;15.00;99.90
32502;DHT22;18952;52.516;13.460;2023-06-14T01:58:07;15.00;99.90
32502;DHT22;18952;52.516;13.460;2023-06-14T02:00:34;15.00;99.90
32502;DHT22;18952;52.516;13.460;2023-06-14T02:03:01;14.90;99.90
32502;DHT22;18952;52.516;13.460;2023-06-14T02:05:27;14.80;99.90
32502;DHT22;18952;52.516;13.460;2023-06-14T02:07:54;14.80;99.90
32502;DHT22;18952;52.516;13.460;2023-06-14T02:10:21;14.80;99.90
32502;DHT22;18952;52.516;13.460;2023-06-14T02:12:48;14.70;99.90
32502;DHT22;18952;52.516;13.460;2023-06-14T02:15:15;14.70;99.90
32502;DHT22;18952;52.516;13.460;2023-06-14T02:17:45;14.80;99.90
32502;DHT22;18952;52.516;13.460;2023-06-14T02:20:12;14.70;99.90
32502;DHT22;18952;52.516;13.460;2023-06-14T02:22:39;14.70;99.90
32502;DHT22;18952;52.516;13.460;2023-06-14T02:25:06;14.70;99.90
32502;DHT22;18952;52.516;13.460;2023-06-14T02:27:34;14.70;99.90
32502;DHT22;18952;52.516;13.460;2023-06-14T02:30:01;14.60;99.90
32502;DHT22;18952;52.516;13.460;2023-06-14T02:39:05;14.50;99.90
32502;DHT22;18952;52.516;13.460;2023-06-14T02:41:32;14.40;99.90
32502;DHT22;18952;52.516;13.460;2023-06-14T02:43:59;14.40;99.90
32502;DHT22;18952;52.516;13.460;2023-06-14T02:46:26;14.40;99.90
32502;DHT22;18952;52.516;13.460;2023-06-14T02:48:53;14.40;99.90
32502;DHT22;18952;52.516;13.460;2023-06-14T02:51:19;14.50;99.90
32502;DHT22;18952;52.516;13.460;2023-06-14T02:53:46;14.40;99.90
32502;DHT22;18952;52.516;13.460;2023-06-14T02:56:13;14.40;99.90
32502;DHT22;18952;52.516;13.460;2023-06-14T02:58:40;14.40;99.90
32502;DHT22;18952;52.516;13.460;2023-06-14T03:01:06;14.40;99.90
32502;DHT22;18952;52.516;13.460;2023-06-14T03:03:34;14.40;99.90
32502;DHT22;18952;52.516;13.460;2023-06-14T03:06:00;14.40;99.90
32502;DHT22;18952;52.516;13.460;2023-06-14T03:08:27;14.50;99.90
32502;DHT22;18952;52.516;13.460;2023-06-14T03:10:54;14.50;99.90
32502;DHT22;18952;52.516;13.460;2023-06-14T03:13:21;14.50;99.90
32502;DHT22;18952;52.516;13.460;2023-06-14T03:15:48;14.50;99.90
32502;DHT22;18952;52.516;13.460;2023-06-14T03:18:14;14.50;99.90
32502;DHT22;18952;52.516;13.460;2023-06-14T03:20:41;14.50;99.90
32502;DHT22;18952;52.516;13.460;2023-06-14T03:23:08;14.50;99.90
32502;DHT22;18952;52.516;13.460;2023-06-14T03:25:35;14.50;99.90
32502;DHT22;18952;52.516;13.460;2023-06-14T03:28:02;14.50;99.90
32502;DHT22;18952;52.516;13.460;2023-06-14T03:30:30;14.40;99.90
32502;DHT22;18952;52.516;13.460;2023-06-14T03:32:57;14.50;99.90
32502;DHT22;18952;52.516;13.460;2023-06-14T03:35:24;14.60;99.90
32502;DHT22;18952;52.516;13.460;2023-06-14T03:37:51;14.60;99.90
32502;DHT22;18952;52.516;13.460;2023-06-14T03:40:19;14.50;99.90
32502;DHT22;18952;52.516;13.460;2023-06-14T03:42:45;14.60;99.90
32502;DHT22;18952;52.516;13.460;2023-06-14T03:45:12;14.60;99.90
32502;DHT22;18952;52.516;13.460;2023-06-14T03:47:39;14.60;99.90
32502;DHT22;18952;52.516;13.460;2023-06-14T03:50:06;14.70;99.90
32502;DHT22;18952;52.516;13.460;2023-06-14T03:52:33;14.60;99.90
32502;DHT22;18952;52.516;13.460;2023-06-14T03:55:00;14.60;99.90
32502;DHT22;18952;52.516;13.460;2023-06-14T03:57:30;14.60;99.90
32502;DHT22;18952;52.516;13.460;2023-06-14T03:59:57;14.60;99.90
32502;DHT22;18952;52.516;13.460;2023-06-14T04:02:23;14.70;99.90
32502;DHT22;18952;52.516;13.460;2023-06-14T04:04:50;14.80;99.90
32502;DHT22;18952;52.516;13.460;2023-06-14T04:07:17;14.80;99.90
32502;DHT22;18952;52.516;13.460;2023-06-14T04:09:44;14.90;99.90
32502;DHT22;18952;52.516;13.460;2023-06-14T04:12:10;14.90;99.90
32502;DHT22;18952;52.516;13.460;2023-06-14T04:14:38;14.90;99.90
32502;DHT22;18952;52.516;13.460;2023-06-14T04:17:06;14.90;99.90
32502;DHT22;18952;52.516;13.460;2023-06-14T04:19:33;15.00;99.90
32502;DHT22;18952;52.516;13.460;2023-06-14T04:22:00;15.00;99.90
32502;DHT22;18952;52.516;13.460;2023-06-14T04:24:26;15.00;99.90
32502;DHT22;18952;52.516;13.460;2023-06-14T04:26:53;15.10;99.90
32502;DHT22;18952;52.516;13.460;2023-06-14T04:29:20;15.10;99.90
32502;DHT22;18952;52.516;13.460;2023-06-14T04:31:47;15.20;99.90
32502;DHT22;18952;52.516;13.460;2023-06-14T04:34:14;15.20;99.90
32502;DHT22;18952;52.516;13.460;2023-06-14T04:36:40;15.20;99.90
32502;DHT22;18952;52.516;13.460;2023-06-14T04:39:07;15.20;99.90
32502;DHT22;18952;52.516;13.460;2023-06-14T04:41:34;15.30;99.90
32502;DHT22;18952;52.516;13.460;2023-06-14T04:44:01;15.30;99.90
32502;DHT22;18952;52.516;13.460;2023-06-14T04:46:30;15.30;99.90
32502;DHT22;18952;52.516;13.460;2023-06-14T04:48:57;15.30;99.90
32502;DHT22;18952;52.516;13.460;2023-06-14T04:51:24;15.30;99.90
32502;DHT22;18952;52.516;13.460;2023-06-14T04:53:50;15.30;99.90
32502;DHT22;18952;52.516;13.460;2023-06-14T04:56:17;15.40;99.90
32502;DHT22;18952;52.516;13.460;2023-06-14T04:58:44;15.40;99.90
32502;DHT22;18952;52.516;13.460;2023-06-14T05:01:11;15.50;99.90
32502;DHT22;18952;52.516;13.460;2023-06-14T05:03:37;15.50;99.90
32502;DHT22;18952;52.516;13.460;2023-06-14T05:06:04;15.60;99.90
32502;DHT22;18952;52.516;13.460;2023-06-14T05:08:31;15.50;99.90
32502;DHT22;18952;52.516;13.460;2023-06-14T05:10:58;15.60;99.90
32502;DHT22;18952;52.516;13.460;2023-06-14T05:13:25;15.60;99.90
32502;DHT22;18952;52.516;13.460;2023-06-14T05:15:51;15.70;99.90
32502;DHT22;18952;52.516;13.460;2023-06-14T05:18:18;15.80;99.90
32502;DHT22;18952;52.516;13.460;2023-06-14T05:20:45;15.80;99.90
32502;DHT22;18952;52.516;13.460;2023-06-14T05:23:12;15.90;99.90
32502;DHT22;18952;52.516;13.460;2023-06-14T05:25:38;16.00;99.90
32502;DHT22;18952;52.516;13.460;2023-06-14T05:28:05;16.10;99.90
32502;DHT22;18952;52.516;13.460;2023-06-14T05:30:32;16.20;99.90
32502;DHT22;18952;52.516;13.460;2023-06-14T05:32:59;16.20;99.90
32502;DHT22;18952;52.516;13.460;2023-06-14T05:35:26;16.30;99.90
32502;DHT22;18952;52.516;13.460;2023-06-14T05:37:53;16.40;99.90
32502;DHT22;18952;52.516;13.460;2023-06-14T05:40:20;16.30;99.90
32502;DHT22;18952;52.516;13.460;2023-06-14T05:42:46;16.40;99.90
32502;DHT22;18952;52.516;13.460;2023-06-14T05:45:13;16.50;99.90
32502;DHT22;18952;52.516;13.460;2023-06-14T05:47:41;16.60;99.90
32502;DHT22;18952;52.516;13.460;2023-06-14T05:50:08;16.60;99.90
32502;DHT22;18952;52.516;13.460;2023-06-14T05:52:35;16.60;99.90
32502;DHT22;18952;52.516;13.460;2023-06-14T05:55:02;16.70;99.90
32502;DHT22;18952;52.516;13.460;2023-06-14T05:57:29;16.70;99.90
32502;DHT22;18952;52.516;13.460;2023-06-14T05:59:56;16.70;99.90
32502;DHT22;18952;52.516;13.460;2023-06-14T06:02:23;16.70;99.90
32502;DHT22;18952;52.516;13.460;2023-06-14T06:04:50;16.60;99.90
32502;DHT22;18952;52.516;13.460;2023-06-14T06:07:17;16.40;99.90
32502;DHT22;18952;52.516;13.460;2023-06-14T06:09:43;16.30;99.90
32502;DHT22;18952;52.516;13.460;2023-06-14T06:12:10;16.30;99.90
32502;DHT22;18952;52.516;13.460;2023-06-14T06:14:37;16.30;99.90
32502;DHT22;18952;52.516;13.460;2023-06-14T06:17:04;16.40;99.90
32502;DHT22;18952;52.516;13.460;2023-06-14T06:19:31;16.40;99.90
32502;DHT22;18952;52.516;13.460;2023-06-14T06:21:57;16.40;99.90
32502;DHT22;18952;52.516;13.460;2023-06-14T06:24:24;16.40;99.90
32502;DHT22;18952;52.516;13.460;2023-06-14T06:26:51;16.50;99.90
32502;DHT22;18952;52.516;13.460;2023-06-14T06:29:18;16.50;99.90
32502;DHT22;18952;52.516;13.460;2023-06-14T06:31:46;16.60;99.90
32502;DHT22;18952;52.516;13.460;2023-06-14T06:34:13;16.50;99.90
32502;DHT22;18952;52.516;13.460;2023-06-14T06:36:40;16.50;99.90
32502;DHT22;18952;52.516;13.460;2023-06-14T06:39:06;16.50;99.90
32502;DHT22;18952;52.516;13.460;2023-06-14T06:41:33;16.40;99.90
32502;DHT22;18952;52.516;13.460;2023-06-14T06:44:00;16.30;99.90
32502;DHT22;18952;52.516;13.460;2023-06-14T06:46:26;16.40;99.90
32502;DHT22;18952;52.516;13.460;2023-06-14T06:48:53;16.50;99.90
32502;DHT22;18952;52.516;13.460;2023-06-14T06:51:20;16.60;99.90
32502;DHT22;18952;52.516;13.460;2023-06-14T06:53:52;16.70;99.90
32502;DHT22;18952;52.516;13.460;2023-06-14T06:56:20;16.90;99.90
32502;DHT22;18952;52.516;13.460;2023-06-14T06:58:47;16.90;99.90
32502;DHT22;18952;52.516;13.460;2023-06-14T07:01:14;17.00;99.90
32502;DHT22;18952;52.516;13.460;2023-06-14T07:03:41;17.10;99.90
32502;DHT22;18952;52.516;13.460;2023-06-14T07:06:08;17.20;99.90
32502;DHT22;18952;52.516;13.460;2023-06-14T07:08:36;17.30;99.90
32502;DHT22;18952;52.516;13.460;2023-06-14T07:11:02;17.40;99.90
32502;DHT22;18952;52.516;13.460;2023-06-14T07:13:29;17.50;99.90
32502;DHT22;18952;52.516;13.460;2023-06-14T07:15:58;17.60;99.90
32502;DHT22;18952;52.516;13.460;2023-06-14T07:18:25;17.70;99.90
32502;DHT22;18952;52.516;13.460;2023-06-14T07:20:53;17.70;99.90
32502;DHT22;18952;52.516;13.460;2023-06-14T07:23:20;17.60;99.90
32502;DHT22;18952;52.516;13.460;2023-06-14T07:25:47;17.50;99.90
32502;DHT22;18952;52.516;13.460;2023-06-14T07:28:15;17.40;99.90
32502;DHT22;18952;52.516;13.460;2023-06-14T07:30:42;17.60;99.90
32502;DHT22;18952;52.516;13.460;2023-06-14T07:33:09;17.80;99.90
32502;DHT22;18952;52.516;13.460;2023-06-14T07:35:36;17.80;99.90
32502;DHT22;18952;52.516;13.460;2023-06-14T07:38:03;17.80;99.90
32502;DHT22;18952;52.516;13.460;2023-06-14T07:40:29;18.00;99.90
32502;DHT22;18952;52.516;13.460;2023-06-14T07:42:56;18.20;99.90
32502;DHT22;18952;52.516;13.460;2023-06-14T07:45:23;18.30;99.90
32502;DHT22;18952;52.516;13.460;2023-06-14T07:47:49;18.30;99.90
32502;DHT22;18952;52.516;13.460;2023-06-14T07:50:16;18.40;99.90
32502;DHT22;18952;52.516;13.460;2023-06-14T07:52:44;18.60;99.90
32502;DHT22;18952;52.516;13.460;2023-06-14T07:55:12;18.80;99.90
32502;DHT22;18952;52.516;13.460;2023-06-14T07:57:39;18.90;99.90
32502;DHT22;18952;52.516;13.460;2023-06-14T08:00:06;18.90;99.90
32502;DHT22;18952;52.516;13.460;2023-06-14T08:02:33;19.00;99.90
32502;DHT22;18952;52.516;13.460;2023-06-14T08:05:00;19.10;99.90
32502;DHT22;18952;52.516;13.460;2023-06-14T08:07:27;19.10;99.90
32502;DHT22;18952;52.516;13.460;2023-06-14T08:09:54;19.20;99.90
32502;DHT22;18952;52.516;13.460;2023-06-14T08:12:21;19.10;99.90
32502;DHT22;18952;52.516;13.460;2023-06-14T08:14:47;18.90;99.90
32502;DHT22;18952;52.516;13.460;2023-06-14T08:17:27;18.80;99.90
32502;DHT22;18952;52.516;13.460;2023-06-14T08:19:54;18.80;99.90
32502;DHT22;18952;52.516;13.460;2023-06-14T08:22:20;18.90;99.90
32502;DHT22;18952;52.516;13.460;2023-06-14T08:24:47;19.00;99.90
32502;DHT22;18952;52.516;13.460;2023-06-14T08:27:14;19.10;99.90
32502;DHT22;18952;52.516;13.460;2023-06-14T08:29:41;19.20;99.90
32502;DHT22;18952;52.516;13.460;2023-06-14T08:32:08;19.20;99.90
32502;DHT22;18952;52.516;13.460;2023-06-14T08:34:35;19.30;99.90
32502;DHT22;18952;52.516;13.460;2023-06-14T08:37:01;19.20;99.90
32502;DHT22;18952;52.516;13.460;2023-06-14T08:39:28;19.10;99.90
32502;DHT22;18952;52.516;13.460;2023-06-14T08:41:56;19.20;99.90
32502;DHT22;18952;52.516;13.460;2023-06-14T08:44:23;19.30;99.90
32502;DHT22;18952;52.516;13.460;2023-06-14T08:46:50;19.20;99.90
32502;DHT22;18952;52.516;13.460;2023-06-14T08:49:17;19.30;99.90
32502;DHT22;18952;52.516;13.460;2023-06-14T08:51:44;19.50;99.90
32502;DHT22;18952;52.516;13.460;2023-06-14T08:54:12;19.50;99.90
32502;DHT22;18952;52.516;13.460;2023-06-14T08:56:39;19.60;99.90
32502;DHT22;18952;52.516;13.460;2023-06-14T08:59:06;19.90;99.90
32502;DHT22;18952;52.516;13.460;2023-06-14T09:01:34;20.10;99.90
32502;DHT22;18952;52.516;13.460;2023-06-14T09:04:02;20.20;99.90
32502;DHT22;18952;52.516;13.460;2023-06-14T09:06:29;20.40;99.90
32502;DHT22;18952;52.516;13.460;2023-06-14T09:08:55;20.60;99.90
32502;DHT22;18952;52.516;13.460;2023-06-14T09:11:23;20.80;99.90
32502;DHT22;18952;52.516;13.460;2023-06-14T09:13:50;21.00;99.90
32502;DHT22;18952;52.516;13.460;2023-06-14T09:16:17;21.30;98.80
32502;DHT22;18952;52.516;13.460;2023-06-14T09:18:46;21.20;98.50
32502;DHT22;18952;52.516;13.460;2023-06-14T09:21:14;21.30;97.90
32502;DHT22;18952;52.516;13.460;2023-06-14T09:23:45;21.30;97.10
32502;DHT22;18952;52.516;13.460;2023-06-14T09:26:19;21.30;96.50
32502;DHT22;18952;52.516;13.460;2023-06-14T09:28:48;21.30;96.50
32502;DHT22;18952;52.516;13.460;2023-06-14T09:31:16;21.40;95.90
32502;DHT22;18952;52.516;13.460;2023-06-14T09:33:48;21.40;95.50
32502;DHT22;18952;52.516;13.460;2023-06-14T09:36:22;21.40;95.10
32502;DHT22;18952;52.516;13.460;2023-06-14T09:39:02;21.30;95.10
32502;DHT22;18952;52.516;13.460;2023-06-14T09:41:33;21.20;95.20
32502;DHT22;18952;52.516;13.460;2023-06-14T09:44:01;21.10;95.40
32502;DHT22;18952;52.516;13.460;2023-06-14T09:46:31;21.40;95.30
32502;DHT22;18952;52.516;13.460;2023-06-14T09:48:58;21.60;94.90
32502;DHT22;18952;52.516;13.460;2023-06-14T09:51:26;21.80;94.50
32502;DHT22;18952;52.516;13.460;2023-06-14T09:53:59;21.90;94.30
32502;DHT22;18952;52.516;13.460;2023-06-14T09:56:31;22.00;93.70
32502;DHT22;18952;52.516;13.460;2023-06-14T09:58:58;22.10;93.10
32502;DHT22;18952;52.516;13.460;2023-06-14T10:01:35;22.10;92.70
32502;DHT22;18952;52.516;13.460;2023-06-14T10:04:05;22.10;92.80
32502;DHT22;18952;52.516;13.460;2023-06-14T10:06:41;22.10;92.40
32502;DHT22;18952;52.516;13.460;2023-06-14T10:09:09;22.10;92.60
32502;DHT22;18952;52.516;13.460;2023-06-14T10:11:37;22.20;92.40
32502;DHT22;18952;52.516;13.460;2023-06-14T10:14:05;22.10;91.50
32502;DHT22;18952;52.516;13.460;2023-06-14T10:23:23;21.80;92.20
32502;DHT22;18952;52.516;13.460;2023-06-14T10:25:31;21.80;91.70
32502;DHT22;18952;52.516;13.460;2023-06-14T10:28:20;21.90;91.80
32502;DHT22;18952;52.516;13.460;2023-06-14T10:31:09;22.00;91.50
32502;DHT22;18952;52.516;13.460;2023-06-14T10:33:56;22.00;91.20
32502;DHT22;18952;52.516;13.460;2023-06-14T10:36:28;22.10;91.30
32502;DHT22;18952;52.516;13.460;2023-06-14T10:39:17;22.00;91.00
32502;DHT22;18952;52.516;13.460;2023-06-14T10:41:56;21.90;91.10
32502;DHT22;18952;52.516;13.460;2023-06-14T10:46:52;21.90;91.10
32502;DHT22;18952;52.516;13.460;2023-06-14T10:49:19;22.00;91.20
32502;DHT22;18952;52.516;13.460;2023-06-14T10:51:50;22.10;91.10
32502;DHT22;18952;52.516;13.460;2023-06-14T10:54:20;22.20;90.40
32502;DHT22;18952;52.516;13.460;2023-06-14T10:56:51;22.20;90.00
32502;DHT22;18952;52.516;13.460;2023-06-14T10:59:19;22.40;89.40
32502;DHT22;18952;52.516;13.460;2023-06-14T11:02:20;22.50;88.70
32502;DHT22;18952;52.516;13.460;2023-06-14T11:04:54;22.60;87.60
32502;DHT22;18952;52.516;13.460;2023-06-14T11:12:59;22.80;87.10
32502;DHT22;18952;52.516;13.460;2023-06-14T11:15:30;22.90;86.50
32502;DHT22;18952;52.516;13.460;2023-06-14T11:17:57;23.00;85.30
32502;DHT22;18952;52.516;13.460;2023-06-14T11:20:26;23.10;85.50
32502;DHT22;18952;52.516;13.460;2023-06-14T11:22:54;23.30;84.90
32502;DHT22;18952;52.516;13.460;2023-06-14T11:25:21;23.30;84.30
32502;DHT22;18952;52.516;13.460;2023-06-14T11:27:49;23.30;83.80
32502;DHT22;18952;52.516;13.460;2023-06-14T11:30:17;23.40;83.80
32502;DHT22;18952;52.516;13.460;2023-06-14T11:32:48;23.40;83.30
32502;DHT22;18952;52.516;13.460;2023-06-14T11:35:16;23.60;82.70
32502;DHT22;18952;52.516;13.460;2023-06-14T11:37:44;23.70;82.40
32502;DHT22;18952;52.516;13.460;2023-06-14T11:40:12;23.80;81.60
32502;DHT22;18952;52.516;13.460;2023-06-14T11:42:40;23.90;80.60
32502;DHT22;18952;52.516;13.460;2023-06-14T11:45:08;24.00;79.70
32502;DHT22;18952;52.516;13.460;2023-06-14T11:47:37;24.00;79.50
32502;DHT22;18952;52.516;13.460;2023-06-14T11:50:09;24.10;79.40
32502;DHT22;18952;52.516;13.460;2023-06-14T11:52:37;24.20;78.80
32502;DHT22;18952;52.516;13.460;2023-06-14T11:55:04;24.20;78.10
32502;DHT22;18952;52.516;13.460;2023-06-14T11:57:34;24.20;77.30
32502;DHT22;18952;52.516;13.460;2023-06-14T12:00:04;24.30;77.00
32502;DHT22;18952;52.516;13.460;2023-06-14T12:02:31;24.30;75.80
32502;DHT22;18952;52.516;13.460;2023-06-14T12:05:04;24.30;75.00
32502;DHT22;18952;52.516;13.460;2023-06-14T12:07:31;24.30;74.50
32502;DHT22;18952;52.516;13.460;2023-06-14T12:12:25;24.30;74.80
32502;DHT22;18952;52.516;13.460;2023-06-14T12:14:54;24.60;74.50
32502;DHT22;18952;52.516;13.460;2023-06-14T12:17:22;25.10;73.40
32502;DHT22;18952;52.516;13.460;2023-06-14T12:19:50;25.50;72.90
32502;DHT22;18952;52.516;13.460;2023-06-14T12:22:17;25.90;71.80
32502;DHT22;18952;52.516;13.460;2023-06-14T12:24:44;26.20;70.80
32502;DHT22;18952;52.516;13.460;2023-06-14T12:27:11;26.60;69.70
32502;DHT22;18952;52.516;13.460;2023-06-14T12:29:38;27.00;66.70
32502;DHT22;18952;52.516;13.460;2023-06-14T12:32:05;27.30;65.90
32502;DHT22;18952;52.516;13.460;2023-06-14T12:34:32;27.50;65.20
32502;DHT22;18952;52.516;13.460;2023-06-14T12:36:59;27.90;63.30
32502;DHT22;18952;52.516;13.460;2023-06-14T12:39:26;28.10;61.10
32502;DHT22;18952;52.516;13.460;2023-06-14T12:41:53;28.20;59.50
32502;DHT22;18952;52.516;13.460;2023-06-14T12:44:19;28.50;59.20
32502;DHT22;18952;52.516;13.460;2023-06-14T12:46:46;28.80;57.90
32502;DHT22;18952;52.516;13.460;2023-06-14T12:49:13;29.20;57.50
32502;DHT22;18952;52.516;13.460;2023-06-14T12:51:40;29.50;56.40
32502;DHT22;18952;52.516;13.460;2023-06-14T12:54:07;29.80;55.20
32502;DHT22;18952;52.516;13.460;2023-06-14T12:56:35;30.20;54.60
32502;DHT22;18952;52.516;13.460;2023-06-14T12:59:01;30.40;53.20
32502;DHT22;18952;52.516;13.460;2023-06-14T13:01:29;30.60;51.90
32502;DHT22;18952;52.516;13.460;2023-06-14T13:03:55;30.30;52.10
32502;DHT22;18952;52.516;13.460;2023-06-14T13:06:23;30.30;51.70
32502;DHT22;18952;52.516;13.460;2023-06-14T13:08:50;30.30;51.40
32502;DHT22;18952;52.516;13.460;2023-06-14T13:11:16;30.40;51.00
32502;DHT22;18952;52.516;13.460;2023-06-14T13:13:43;30.50;50.40
32502;DHT22;18952;52.516;13.460;2023-06-14T13:16:10;30.30;50.00
32502;DHT22;18952;52.516;13.460;2023-06-14T13:18:37;30.10;50.30
32502;DHT22;18952;52.516;13.460;2023-06-14T13:21:03;30.00;50.60
32502;DHT22;18952;52.516;13.460;2023-06-14T13:23:30;29.90;50.20
32502;DHT22;18952;52.516;13.460;2023-06-14T13:25:57;30.00;50.10
32502;DHT22;18952;52.516;13.460;2023-06-14T13:28:25;30.20;49.60
32502;DHT22;18952;52.516;13.460;2023-06-14T13:30:52;30.50;49.00
32502;DHT22;18952;52.516;13.460;2023-06-14T13:33:18;30.90;49.00
32502;DHT22;18952;52.516;13.460;2023-06-14T13:35:46;31.20;48.10
32502;DHT22;18952;52.516;13.460;2023-06-14T13:38:13;31.20;47.50
32502;DHT22;18952;52.516;13.460;2023-06-14T13:40:40;31.30;47.40
32502;DHT22;18952;52.516;13.460;2023-06-14T13:43:06;31.30;47.40
32502;DHT22;18952;52.516;13.460;2023-06-14T13:45:34;31.10;47.40
32502;DHT22;18952;52.516;13.460;2023-06-14T13:48:18;31.20;47.10
32502;DHT22;18952;52.516;13.460;2023-06-14T13:51:03;31.30;47.50
32502;DHT22;18952;52.516;13.460;2023-06-14T13:53:50;31.20;47.30
32502;DHT22;18952;52.516;13.460;2023-06-14T13:56:34;31.60;46.60
32502;DHT22;18952;52.516;13.460;2023-06-14T13:59:18;31.50;46.70
32502;DHT22;18952;52.516;13.460;2023-06-14T14:02:03;31.10;47.00
32502;DHT22;18952;52.516;13.460;2023-06-14T14:04:47;31.10;46.70
32502;DHT22;18952;52.516;13.460;2023-06-14T14:07:31;31.10;46.60
32502;DHT22;18952;52.516;13.460;2023-06-14T14:10:15;30.70;46.90
32502;DHT22;18952;52.516;13.460;2023-06-14T14:13:00;30.30;47.40
32502;DHT22;18952;52.516;13.460;2023-06-14T14:15:44;29.80;47.90
32502;DHT22;18952;52.516;13.460;2023-06-14T14:18:28;29.50;48.00
32502;DHT22;18952;52.516;13.460;2023-06-14T14:21:12;29.20;48.40
32502;DHT22;18952;52.516;13.460;2023-06-14T14:23:58;29.10;48.80
32502;DHT22;18952;52.516;13.460;2023-06-14T14:26:42;28.80;48.70
32502;DHT22;18952;52.516;13.460;2023-06-14T14:29:27;28.60;49.00
32502;DHT22;18952;52.516;13.460;2023-06-14T14:31:54;28.60;49.10
32502;DHT22;18952;52.516;13.460;2023-06-14T14:34:21;28.40;48.80
32502;DHT22;18952;52.516;13.460;2023-06-14T14:36:48;28.30;48.90
32502;DHT22;18952;52.516;13.460;2023-06-14T14:39:15;28.20;48.90
32502;DHT22;18952;52.516;13.460;2023-06-14T14:41:42;28.00;48.80
32502;DHT22;18952;52.516;13.460;2023-06-14T14:44:09;28.00;48.60
32502;DHT22;18952;52.516;13.460;2023-06-14T14:46:35;27.90;48.60
32502;DHT22;18952;52.516;13.460;2023-06-14T14:49:02;27.60;48.70
32502;DHT22;18952;52.516;13.460;2023-06-14T14:51:29;27.40;48.50
32502;DHT22;18952;52.516;13.460;2023-06-14T14:53:56;27.10;48.90
32502;DHT22;18952;52.516;13.460;2023-06-14T14:56:23;26.80;48.90
32502;DHT22;18952;52.516;13.460;2023-06-14T14:58:50;26.20;50.90
32502;DHT22;18952;52.516;13.460;2023-06-14T15:01:16;25.80;51.70
32502;DHT22;18952;52.516;13.460;2023-06-14T15:03:43;25.60;52.10
32502;DHT22;18952;52.516;13.460;2023-06-14T15:06:25;25.30;52.90
32502;DHT22;18952;52.516;13.460;2023-06-14T15:08:54;25.00;52.80
32502;DHT22;18952;52.516;13.460;2023-06-14T15:11:21;24.80;53.00
32502;DHT22;18952;52.516;13.460;2023-06-14T15:13:48;24.60;53.20
32502;DHT22;18952;52.516;13.460;2023-06-14T15:16:15;24.40;53.30
32502;DHT22;18952;52.516;13.460;2023-06-14T15:18:42;24.20;53.50
32502;DHT22;18952;52.516;13.460;2023-06-14T15:21:08;24.00;53.80
32502;DHT22;18952;52.516;13.460;2023-06-14T15:23:35;23.90;54.00
32502;DHT22;18952;52.516;13.460;2023-06-14T15:26:02;23.80;54.10
32502;DHT22;18952;52.516;13.460;2023-06-14T15:28:29;23.70;54.20
32502;DHT22;18952;52.516;13.460;2023-06-14T15:30:56;23.70;54.50
32502;DHT22;18952;52.516;13.460;2023-06-14T15:33:23;23.70;54.50
32502;DHT22;18952;52.516;13.460;2023-06-14T15:35:49;23.60;54.50
32502;DHT22;18952;52.516;13.460;2023-06-14T15:38:16;23.50;55.50
32502;DHT22;18952;52.516;13.460;2023-06-14T15:40:43;23.60;55.30
32502;DHT22;18952;52.516;13.460;2023-06-14T15:43:10;23.50;55.30
32502;DHT22;18952;52.516;13.460;2023-06-14T15:45:37;23.70;55.30
32502;DHT22;18952;52.516;13.460;2023-06-14T15:48:04;24.00;55.40
32502;DHT22;18952;52.516;13.460;2023-06-14T15:50:31;24.30;55.10